sensor_id;sensor_type;location;lat;lon;timestamp;P1;durP1;ratioP1;P2;durP2;ratioP2
37657;SDS011;23500;53.268;8.308;2023-12-22T00:01:29;19.75;;;17.58;;
37657;SDS011;23500;53.268;8.308;2023-12-22T00:03:55;19.65;;;17.58;;
37657;SDS011;23500;53.268;8.308;2023-12-22T00:06:21;20.55;;;17.77;;
37657;SDS011;23500;53.268;8.308;2023-12-22T00:08:47;19.58;;;17.48;;
37657;SDS011;23500;53.268;8.308;2023-12-22T00:11:13;20.10;;;17.25;;
37657;SDS011;23500;53.268;8.308;2023-12-22T00:13:38;20.50;;;17.35;;
37657;SDS011;23500;53.268;8.308;2023-12-22T00:16:04;19.65;;;17.25;;
37657;SDS011;23500;53.268;8.308;2023-12-22T00:18:30;20.00;;;16.70;;
37657;SDS011;23500;53.268;8.308;2023-12-22T00:20:56;18.80;;;16.75;;
37657;SDS011;23500;53.268;8.308;2023-12-22T00:23:22;19.77;;;16.58;;
37657;SDS011;23500;53.268;8.308;2023-12-22T00:25:47;18.85;;;16.85;;
37657;SDS011;23500;53.268;8.308;2023-12-22T00:28:13;19.27;;;17.15;;
37657;SDS011;23500;53.268;8.308;2023-12-22T00:30:39;18.13;;;15.98;;
37657;SDS011;23500;53.268;8.308;2023-12-22T00:33:04;18.88;;;16.58;;
37657;SDS011;23500;53.268;8.308;2023-12-22T00:35:31;17.80;;;15.68;;
37657;SDS011;23500;53.268;8.308;2023-12-22T00:37:56;17.33;;;15.50;;
37657;SDS011;23500;53.268;8.308;2023-12-22T00:40:22;18.08;;;16.17;;
37657;SDS011;23500;53.268;8.308;2023-12-22T00:42:48;18.25;;;16.15;;
37657;SDS011;23500;53.268;8.308;2023-12-22T00:45:13;17.55;;;15.55;;
37657;SDS011;23500;53.268;8.308;2023-12-22T00:47:39;18.10;;;15.57;;
37657;SDS011;23500;53.268;8.308;2023-12-22T00:50:05;17.70;;;15.80;;
37657;SDS011;23500;53.268;8.308;2023-12-22T00:52:31;18.85;;;15.50;;
37657;SDS011;23500;53.268;8.308;2023-12-22T00:54:57;17.45;;;15.20;;
37657;SDS011;23500;53.268;8.308;2023-12-22T00:57:23;15.75;;;14.15;;
37657;SDS011;23500;53.268;8.308;2023-12-22T00:59:48;17.45;;;15.10;;
37657;SDS011;23500;53.268;8.308;2023-12-22T01:02:17;16.88;;;15.10;;
37657;SDS011;23500;53.268;8.308;2023-12-22T01:04:43;16.52;;;14.82;;
37657;SDS011;23500;53.268;8.308;2023-12-22T01:07:09;16.75;;;14.90;;
37657;SDS011;23500;53.268;8.308;2023-12-22T01:09:36;15.45;;;13.85;;
37657;SDS011;23500;53.268;8.308;2023-12-22T01:12:02;16.23;;;14.52;;
37657;SDS011;23500;53.268;8.308;2023-12-22T01:14:29;15.65;;;14.00;;
37657;SDS011;23500;53.268;8.308;2023-12-22T01:16:55;15.32;;;13.82;;
37657;SDS011;23500;53.268;8.308;2023-12-22T01:19:21;15.32;;;13.73;;
37657;SDS011;23500;53.268;8.308;2023-12-22T01:21:47;16.30;;;14.60;;
37657;SDS011;23500;53.268;8.308;2023-12-22T01:24:13;15.90;;;13.95;;
37657;SDS011;23500;53.268;8.308;2023-12-22T01:26:38;15.68;;;13.85;;
37657;SDS011;23500;53.268;8.308;2023-12-22T01:29:04;15.45;;;13.48;;
37657;SDS011;23500;53.268;8.308;2023-12-22T01:31:30;15.35;;;13.75;;
37657;SDS011;23500;53.268;8.308;2023-12-22T01:33:55;15.60;;;13.90;;
37657;SDS011;23500;53.268;8.308;2023-12-22T01:36:21;15.43;;;13.52;;
37657;SDS011;23500;53.268;8.308;2023-12-22T01:38:47;14.77;;;13.27;;
37657;SDS011;23500;53.268;8.308;2023-12-22T01:41:13;16.15;;;13.10;;
37657;SDS011;23500;53.268;8.308;2023-12-22T01:43:39;14.27;;;12.77;;
37657;SDS011;23500;53.268;8.308;2023-12-22T01:46:04;13.93;;;12.43;;
37657;SDS011;23500;53.268;8.308;2023-12-22T01:48:32;13.98;;;12.52;;
37657;SDS011;23500;53.268;8.308;2023-12-22T01:50:59;13.75;;;12.35;;
37657;SDS011;23500;53.268;8.308;2023-12-22T01:53:26;15.50;;;12.32;;
37657;SDS011;23500;53.268;8.308;2023-12-22T01:55:53;14.40;;;12.75;;
37657;SDS011;23500;53.268;8.308;2023-12-22T01:58:20;15.57;;;13.10;;
37657;SDS011;23500;53.268;8.308;2023-12-22T02:00:48;13.27;;;11.88;;
37657;SDS011;23500;53.268;8.308;2023-12-22T02:03:13;14.25;;;11.90;;
37657;SDS011;23500;53.268;8.308;2023-12-22T02:05:43;13.05;;;11.20;;
37657;SDS011;23500;53.268;8.308;2023-12-22T02:08:10;12.98;;;11.68;;
37657;SDS011;23500;53.268;8.308;2023-12-22T02:10:36;12.90;;;11.30;;
37657;SDS011;23500;53.268;8.308;2023-12-22T02:13:03;12.85;;;11.55;;
37657;SDS011;23500;53.268;8.308;2023-12-22T02:15:32;13.85;;;11.45;;
37657;SDS011;23500;53.268;8.308;2023-12-22T02:20:32;12.63;;;11.32;;
37657;SDS011;23500;53.268;8.308;2023-12-22T02:22:58;12.88;;;11.43;;
37657;SDS011;23500;53.268;8.308;2023-12-22T02:25:24;12.57;;;11.27;;
37657;SDS011;23500;53.268;8.308;2023-12-22T02:27:50;13.07;;;11.70;;
37657;SDS011;23500;53.268;8.308;2023-12-22T02:32:50;12.48;;;10.57;;
37657;SDS011;23500;53.268;8.308;2023-12-22T02:35:20;13.07;;;11.45;;
37657;SDS011;23500;53.268;8.308;2023-12-22T02:37:48;12.68;;;10.88;;
37657;SDS011;23500;53.268;8.308;2023-12-22T02:40:15;13.90;;;11.48;;
37657;SDS011;23500;53.268;8.308;2023-12-22T02:42:42;11.60;;;10.40;;
37657;SDS011;23500;53.268;8.308;2023-12-22T02:45:15;12.25;;;10.27;;
37657;SDS011;23500;53.268;8.308;2023-12-22T02:47:42;12.43;;;10.43;;
37657;SDS011;23500;53.268;8.308;2023-12-22T02:50:08;11.60;;;10.40;;
37657;SDS011;23500;53.268;8.308;2023-12-22T02:52:34;11.70;;;10.45;;
37657;SDS011;23500;53.268;8.308;2023-12-22T02:55:01;11.70;;;10.50;;
37657;SDS011;23500;53.268;8.308;2023-12-22T02:57:27;11.52;;;10.15;;
37657;SDS011;23500;53.268;8.308;2023-12-22T02:59:52;12.05;;;10.40;;
37657;SDS011;23500;53.268;8.308;2023-12-22T03:02:18;10.73;;;9.32;;
37657;SDS011;23500;53.268;8.308;2023-12-22T03:04:44;11.18;;;9.98;;
37657;SDS011;23500;53.268;8.308;2023-12-22T03:07:11;11.43;;;10.13;;
37657;SDS011;23500;53.268;8.308;2023-12-22T03:09:37;12.20;;;10.18;;
37657;SDS011;23500;53.268;8.308;2023-12-22T03:12:04;11.32;;;10.02;;
37657;SDS011;23500;53.268;8.308;2023-12-22T03:14:30;11.35;;;9.85;;
37657;SDS011;23500;53.268;8.308;2023-12-22T03:16:58;10.80;;;9.50;;
37657;SDS011;23500;53.268;8.308;2023-12-22T03:19:24;10.63;;;9.35;;
37657;SDS011;23500;53.268;8.308;2023-12-22T03:21:50;11.88;;;9.70;;
37657;SDS011;23500;53.268;8.308;2023-12-22T03:24:16;9.82;;;8.82;;
37657;SDS011;23500;53.268;8.308;2023-12-22T03:26:44;10.68;;;9.48;;
37657;SDS011;23500;53.268;8.308;2023-12-22T03:29:10;10.77;;;8.95;;
37657;SDS011;23500;53.268;8.308;2023-12-22T03:31:36;9.30;;;8.27;;
37657;SDS011;23500;53.268;8.308;2023-12-22T03:34:02;11.00;;;9.35;;
37657;SDS011;23500;53.268;8.308;2023-12-22T03:36:27;9.60;;;8.60;;
37657;SDS011;23500;53.268;8.308;2023-12-22T03:38:53;9.68;;;8.65;;
37657;SDS011;23500;53.268;8.308;2023-12-22T03:41:19;10.48;;;9.13;;
37657;SDS011;23500;53.268;8.308;2023-12-22T03:43:44;11.30;;;9.38;;
37657;SDS011;23500;53.268;8.308;2023-12-22T03:46:10;10.13;;;9.07;;
37657;SDS011;23500;53.268;8.308;2023-12-22T03:48:36;9.02;;;8.13;;
37657;SDS011;23500;53.268;8.308;2023-12-22T03:51:01;10.10;;;8.77;;
37657;SDS011;23500;53.268;8.308;2023-12-22T03:53:27;9.57;;;8.63;;
37657;SDS011;23500;53.268;8.308;2023-12-22T03:55:53;10.02;;;8.68;;
37657;SDS011;23500;53.268;8.308;2023-12-22T03:58:18;9.02;;;8.13;;
37657;SDS011;23500;53.268;8.308;2023-12-22T04:00:44;9.00;;;8.10;;
37657;SDS011;23500;53.268;8.308;2023-12-22T04:03:10;9.75;;;8.75;;
37657;SDS011;23500;53.268;8.308;2023-12-22T04:05:35;8.88;;;7.97;;
37657;SDS011;23500;53.268;8.308;2023-12-22T04:08:01;8.90;;;8.00;;
37657;SDS011;23500;53.268;8.308;2023-12-22T04:10:27;8.30;;;7.40;;
37657;SDS011;23500;53.268;8.308;2023-12-22T04:12:53;8.85;;;7.88;;
37657;SDS011;23500;53.268;8.308;2023-12-22T04:15:18;9.05;;;7.90;;
37657;SDS011;23500;53.268;8.308;2023-12-22T04:17:44;8.80;;;7.78;;
37657;SDS011;23500;53.268;8.308;2023-12-22T04:20:10;8.35;;;7.22;;
37657;SDS011;23500;53.268;8.308;2023-12-22T04:22:35;8.23;;;7.43;;
37657;SDS011;23500;53.268;8.308;2023-12-22T04:25:01;8.80;;;7.68;;
37657;SDS011;23500;53.268;8.308;2023-12-22T04:27:27;8.25;;;7.45;;
37657;SDS011;23500;53.268;8.308;2023-12-22T04:29:53;8.32;;;7.53;;
37657;SDS011;23500;53.268;8.308;2023-12-22T04:32:18;8.02;;;7.22;;
37657;SDS011;23500;53.268;8.308;2023-12-22T04:34:44;7.90;;;7.10;;
37657;SDS011;23500;53.268;8.308;2023-12-22T04:37:09;7.70;;;6.93;;
37657;SDS011;23500;53.268;8.308;2023-12-22T04:39:35;7.95;;;7.15;;
37657;SDS011;23500;53.268;8.308;2023-12-22T04:42:01;7.20;;;6.50;;
37657;SDS011;23500;53.268;8.308;2023-12-22T04:44:27;8.38;;;7.20;;
37657;SDS011;23500;53.268;8.308;2023-12-22T04:46:52;7.10;;;6.40;;
37657;SDS011;23500;53.268;8.308;2023-12-22T04:49:18;7.88;;;7.07;;
37657;SDS011;23500;53.268;8.308;2023-12-22T04:51:43;7.68;;;6.65;;
37657;SDS011;23500;53.268;8.308;2023-12-22T04:54:09;7.80;;;7.00;;
37657;SDS011;23500;53.268;8.308;2023-12-22T04:56:35;7.55;;;6.85;;
37657;SDS011;23500;53.268;8.308;2023-12-22T04:59:01;7.10;;;6.40;;
37657;SDS011;23500;53.268;8.308;2023-12-22T05:01:27;7.05;;;6.35;;
37657;SDS011;23500;53.268;8.308;2023-12-22T05:03:52;7.20;;;6.50;;
37657;SDS011;23500;53.268;8.308;2023-12-22T05:06:19;7.47;;;6.50;;
37657;SDS011;23500;53.268;8.308;2023-12-22T05:08:45;6.97;;;6.28;;
37657;SDS011;23500;53.268;8.308;2023-12-22T05:11:11;8.35;;;7.03;;
37657;SDS011;23500;53.268;8.308;2023-12-22T05:13:37;7.90;;;7.10;;
37657;SDS011;23500;53.268;8.308;2023-12-22T05:16:03;6.97;;;6.30;;
37657;SDS011;23500;53.268;8.308;2023-12-22T05:18:29;7.82;;;6.70;;
37657;SDS011;23500;53.268;8.308;2023-12-22T05:20:55;7.00;;;6.30;;
37657;SDS011;23500;53.268;8.308;2023-12-22T05:23:21;7.65;;;6.40;;
37657;SDS011;23500;53.268;8.308;2023-12-22T05:25:47;6.55;;;5.95;;
37657;SDS011;23500;53.268;8.308;2023-12-22T05:28:12;7.20;;;6.50;;
37657;SDS011;23500;53.268;8.308;2023-12-22T05:30:38;6.57;;;5.70;;
37657;SDS011;23500;53.268;8.308;2023-12-22T05:33:04;6.50;;;5.80;;
37657;SDS011;23500;53.268;8.308;2023-12-22T05:35:29;6.80;;;6.10;;
37657;SDS011;23500;53.268;8.308;2023-12-22T05:37:55;6.68;;;6.00;;
37657;SDS011;23500;53.268;8.308;2023-12-22T05:40:21;6.32;;;5.72;;
37657;SDS011;23500;53.268;8.308;2023-12-22T05:42:46;6.75;;;6.15;;
37657;SDS011;23500;53.268;8.308;2023-12-22T05:45:13;5.70;;;5.20;;
37657;SDS011;23500;53.268;8.308;2023-12-22T05:47:39;6.40;;;5.80;;
37657;SDS011;23500;53.268;8.308;2023-12-22T05:50:05;6.28;;;5.68;;
37657;SDS011;23500;53.268;8.308;2023-12-22T05:52:32;5.93;;;5.32;;
37657;SDS011;23500;53.268;8.308;2023-12-22T05:54:57;5.93;;;5.43;;
37657;SDS011;23500;53.268;8.308;2023-12-22T05:57:26;5.95;;;5.35;;
37657;SDS011;23500;53.268;8.308;2023-12-22T05:59:52;5.82;;;5.22;;
37657;SDS011;23500;53.268;8.308;2023-12-22T06:02:18;5.63;;;5.00;;
37657;SDS011;23500;53.268;8.308;2023-12-22T06:04:44;5.60;;;5.10;;
37657;SDS011;23500;53.268;8.308;2023-12-22T06:07:10;5.57;;;4.93;;
37657;SDS011;23500;53.268;8.308;2023-12-22T06:09:36;6.18;;;5.10;;
37657;SDS011;23500;53.268;8.308;2023-12-22T06:12:02;6.00;;;5.40;;
37657;SDS011;23500;53.268;8.308;2023-12-22T06:14:28;6.25;;;5.30;;
37657;SDS011;23500;53.268;8.308;2023-12-22T06:16:54;6.10;;;5.40;;
37657;SDS011;23500;53.268;8.308;2023-12-22T06:19:21;5.95;;;5.35;;
37657;SDS011;23500;53.268;8.308;2023-12-22T06:21:50;6.05;;;5.40;;
37657;SDS011;23500;53.268;8.308;2023-12-22T06:24:15;5.32;;;4.82;;
37657;SDS011;23500;53.268;8.308;2023-12-22T06:26:41;5.85;;;5.25;;
37657;SDS011;23500;53.268;8.308;2023-12-22T06:29:07;5.65;;;5.10;;
37657;SDS011;23500;53.268;8.308;2023-12-22T06:31:34;5.97;;;5.20;;
37657;SDS011;23500;53.268;8.308;2023-12-22T06:34:00;5.78;;;5.05;;
37657;SDS011;23500;53.268;8.308;2023-12-22T06:36:26;5.53;;;4.90;;
37657;SDS011;23500;53.268;8.308;2023-12-22T06:38:53;5.40;;;4.90;;
37657;SDS011;23500;53.268;8.308;2023-12-22T06:41:23;5.70;;;5.03;;
37657;SDS011;23500;53.268;8.308;2023-12-22T06:43:49;5.43;;;4.85;;
37657;SDS011;23500;53.268;8.308;2023-12-22T06:46:19;4.90;;;4.40;;
37657;SDS011;23500;53.268;8.308;2023-12-22T06:48:47;5.22;;;4.72;;
37657;SDS011;23500;53.268;8.308;2023-12-22T06:51:26;5.15;;;4.65;;
37657;SDS011;23500;53.268;8.308;2023-12-22T06:53:55;4.75;;;4.32;;
37657;SDS011;23500;53.268;8.308;2023-12-22T06:56:23;5.28;;;4.78;;
37657;SDS011;23500;53.268;8.308;2023-12-22T06:58:50;5.13;;;4.32;;
37657;SDS011;23500;53.268;8.308;2023-12-22T07:01:21;5.30;;;4.80;;
37657;SDS011;23500;53.268;8.308;2023-12-22T07:03:47;5.13;;;4.63;;
37657;SDS011;23500;53.268;8.308;2023-12-22T07:06:14;4.53;;;4.10;;
37657;SDS011;23500;53.268;8.308;2023-12-22T07:08:41;4.97;;;4.47;;
37657;SDS011;23500;53.268;8.308;2023-12-22T07:11:07;5.30;;;4.80;;
37657;SDS011;23500;53.268;8.308;2023-12-22T07:13:37;4.53;;;4.13;;
37657;SDS011;23500;53.268;8.308;2023-12-22T07:16:03;4.80;;;4.30;;
37657;SDS011;23500;53.268;8.308;2023-12-22T07:18:29;5.30;;;4.63;;
37657;SDS011;23500;53.268;8.308;2023-12-22T07:20:58;5.03;;;4.05;;
37657;SDS011;23500;53.268;8.308;2023-12-22T07:23:24;5.05;;;4.55;;
37657;SDS011;23500;53.268;8.308;2023-12-22T07:25:50;4.75;;;4.25;;
37657;SDS011;23500;53.268;8.308;2023-12-22T07:28:16;4.47;;;4.07;;
37657;SDS011;23500;53.268;8.308;2023-12-22T07:30:41;4.60;;;3.92;;
37657;SDS011;23500;53.268;8.308;2023-12-22T07:33:07;4.60;;;4.10;;
37657;SDS011;23500;53.268;8.308;2023-12-22T07:35:33;5.72;;;4.22;;
37657;SDS011;23500;53.268;8.308;2023-12-22T07:37:59;4.63;;;3.95;;
37657;SDS011;23500;53.268;8.308;2023-12-22T07:40:27;4.65;;;4.25;;
37657;SDS011;23500;53.268;8.308;2023-12-22T07:42:55;4.75;;;4.30;;
37657;SDS011;23500;53.268;8.308;2023-12-22T07:45:21;4.30;;;3.72;;
37657;SDS011;23500;53.268;8.308;2023-12-22T07:47:47;4.75;;;3.78;;
37657;SDS011;23500;53.268;8.308;2023-12-22T07:50:13;4.75;;;4.10;;
37657;SDS011;23500;53.268;8.308;2023-12-22T07:52:39;12.25;;;5.53;;
37657;SDS011;23500;53.268;8.308;2023-12-22T07:55:05;16.00;;;6.45;;
37657;SDS011;23500;53.268;8.308;2023-12-22T07:57:32;13.65;;;6.07;;
37657;SDS011;23500;53.268;8.308;2023-12-22T07:59:58;13.27;;;6.38;;
37657;SDS011;23500;53.268;8.308;2023-12-22T08:02:23;20.08;;;6.78;;
37657;SDS011;23500;53.268;8.308;2023-12-22T08:04:49;14.38;;;6.13;;
37657;SDS011;23500;53.268;8.308;2023-12-22T08:07:15;14.40;;;6.07;;
37657;SDS011;23500;53.268;8.308;2023-12-22T08:09:41;18.65;;;7.15;;
37657;SDS011;23500;53.268;8.308;2023-12-22T08:12:07;12.63;;;6.15;;
37657;SDS011;23500;53.268;8.308;2023-12-22T08:14:33;11.50;;;5.88;;
37657;SDS011;23500;53.268;8.308;2023-12-22T08:16:59;11.52;;;5.43;;
37657;SDS011;23500;53.268;8.308;2023-12-22T08:19:24;9.27;;;5.10;;
37657;SDS011;23500;53.268;8.308;2023-12-22T08:21:52;13.05;;;5.15;;
37657;SDS011;23500;53.268;8.308;2023-12-22T08:24:19;12.73;;;5.72;;
37657;SDS011;23500;53.268;8.308;2023-12-22T08:26:45;11.50;;;5.35;;
37657;SDS011;23500;53.268;8.308;2023-12-22T08:29:11;13.13;;;6.05;;
37657;SDS011;23500;53.268;8.308;2023-12-22T08:31:37;8.63;;;5.07;;
37657;SDS011;23500;53.268;8.308;2023-12-22T08:34:02;12.23;;;5.55;;
37657;SDS011;23500;53.268;8.308;2023-12-22T08:36:28;10.80;;;5.50;;
37657;SDS011;23500;53.268;8.308;2023-12-22T08:38:54;9.55;;;5.22;;
37657;SDS011;23500;53.268;8.308;2023-12-22T08:41:20;11.15;;;5.80;;
37657;SDS011;23500;53.268;8.308;2023-12-22T08:43:45;11.77;;;5.70;;
37657;SDS011;23500;53.268;8.308;2023-12-22T08:46:11;11.02;;;5.22;;
37657;SDS011;23500;53.268;8.308;2023-12-22T08:48:37;10.07;;;5.22;;
37657;SDS011;23500;53.268;8.308;2023-12-22T08:51:03;10.63;;;5.50;;
37657;SDS011;23500;53.268;8.308;2023-12-22T08:53:29;11.63;;;5.38;;
37657;SDS011;23500;53.268;8.308;2023-12-22T08:55:59;13.68;;;5.10;;
37657;SDS011;23500;53.268;8.308;2023-12-22T08:58:25;10.50;;;5.85;;
37657;SDS011;23500;53.268;8.308;2023-12-22T09:00:51;11.07;;;5.40;;
37657;SDS011;23500;53.268;8.308;2023-12-22T09:03:17;18.15;;;5.90;;
37657;SDS011;23500;53.268;8.308;2023-12-22T09:05:42;12.82;;;5.53;;
37657;SDS011;23500;53.268;8.308;2023-12-22T09:08:08;15.35;;;6.15;;
37657;SDS011;23500;53.268;8.308;2023-12-22T09:10:34;12.43;;;5.03;;
37657;SDS011;23500;53.268;8.308;2023-12-22T09:13:00;9.82;;;5.43;;
37657;SDS011;23500;53.268;8.308;2023-12-22T09:15:26;9.00;;;4.75;;
37657;SDS011;23500;53.268;8.308;2023-12-22T09:17:52;11.73;;;5.47;;
37657;SDS011;23500;53.268;8.308;2023-12-22T09:20:20;8.85;;;5.40;;
37657;SDS011;23500;53.268;8.308;2023-12-22T09:22:46;12.18;;;5.35;;
37657;SDS011;23500;53.268;8.308;2023-12-22T09:25:12;13.15;;;5.90;;
37657;SDS011;23500;53.268;8.308;2023-12-22T09:27:38;13.38;;;5.82;;
37657;SDS011;23500;53.268;8.308;2023-12-22T09:30:04;11.63;;;5.05;;
37657;SDS011;23500;53.268;8.308;2023-12-22T09:32:33;10.27;;;4.82;;
37657;SDS011;23500;53.268;8.308;2023-12-22T09:34:59;12.13;;;5.20;;
37657;SDS011;23500;53.268;8.308;2023-12-22T09:37:26;13.55;;;5.47;;
37657;SDS011;23500;53.268;8.308;2023-12-22T09:39:51;9.95;;;5.30;;
37657;SDS011;23500;53.268;8.308;2023-12-22T09:42:17;9.07;;;5.03;;
37657;SDS011;23500;53.268;8.308;2023-12-22T09:44:45;8.88;;;4.95;;
37657;SDS011;23500;53.268;8.308;2023-12-22T09:47:14;10.00;;;4.97;;
37657;SDS011;23500;53.268;8.308;2023-12-22T09:49:42;10.77;;;5.03;;
37657;SDS011;23500;53.268;8.308;2023-12-22T09:52:09;8.18;;;5.00;;
37657;SDS011;23500;53.268;8.308;2023-12-22T09:54:36;10.45;;;5.47;;
37657;SDS011;23500;53.268;8.308;2023-12-22T09:57:02;10.25;;;5.28;;
37657;SDS011;23500;53.268;8.308;2023-12-22T09:59:30;8.40;;;4.82;;
37657;SDS011;23500;53.268;8.308;2023-12-22T10:01:56;9.00;;;4.80;;
37657;SDS011;23500;53.268;8.308;2023-12-22T10:04:25;9.98;;;4.72;;
37657;SDS011;23500;53.268;8.308;2023-12-22T10:06:50;10.80;;;4.65;;
37657;SDS011;23500;53.268;8.308;2023-12-22T10:09:18;10.52;;;4.47;;
37657;SDS011;23500;53.268;8.308;2023-12-22T10:11:44;8.98;;;4.82;;
37657;SDS011;23500;53.268;8.308;2023-12-22T10:14:14;8.13;;;4.45;;
37657;SDS011;23500;53.268;8.308;2023-12-22T10:16:47;6.97;;;4.50;;
37657;SDS011;23500;53.268;8.308;2023-12-22T10:19:14;9.52;;;4.88;;
37657;SDS011;23500;53.268;8.308;2023-12-22T10:21:40;9.27;;;4.60;;
37657;SDS011;23500;53.268;8.308;2023-12-22T10:24:07;10.63;;;4.90;;
37657;SDS011;23500;53.268;8.308;2023-12-22T10:26:32;10.43;;;5.10;;
37657;SDS011;23500;53.268;8.308;2023-12-22T10:28:58;7.75;;;4.15;;
37657;SDS011;23500;53.268;8.308;2023-12-22T10:31:24;8.65;;;4.72;;
37657;SDS011;23500;53.268;8.308;2023-12-22T10:33:50;9.48;;;5.13;;
37657;SDS011;23500;53.268;8.308;2023-12-22T10:36:16;11.63;;;4.80;;
37657;SDS011;23500;53.268;8.308;2023-12-22T10:38:42;10.73;;;5.30;;
37657;SDS011;23500;53.268;8.308;2023-12-22T10:41:09;10.88;;;5.20;;
37657;SDS011;23500;53.268;8.308;2023-12-22T10:43:38;8.90;;;4.45;;
37657;SDS011;23500;53.268;8.308;2023-12-22T10:46:05;9.23;;;4.95;;
37657;SDS011;23500;53.268;8.308;2023-12-22T10:48:33;10.45;;;4.82;;
37657;SDS011;23500;53.268;8.308;2023-12-22T10:50:59;7.15;;;4.68;;
37657;SDS011;23500;53.268;8.308;2023-12-22T10:53:24;8.50;;;4.65;;
37657;SDS011;23500;53.268;8.308;2023-12-22T10:55:50;9.63;;;4.70;;
37657;SDS011;23500;53.268;8.308;2023-12-22T10:58:16;9.25;;;4.88;;
37657;SDS011;23500;53.268;8.308;2023-12-22T11:00:44;8.27;;;4.47;;
37657;SDS011;23500;53.268;8.308;2023-12-22T11:03:12;8.32;;;4.32;;
37657;SDS011;23500;53.268;8.308;2023-12-22T11:05:44;7.93;;;4.47;;
37657;SDS011;23500;53.268;8.308;2023-12-22T11:08:11;9.20;;;4.70;;
37657;SDS011;23500;53.268;8.308;2023-12-22T11:10:37;9.48;;;4.70;;
37657;SDS011;23500;53.268;8.308;2023-12-22T11:13:14;10.10;;;4.25;;
37657;SDS011;23500;53.268;8.308;2023-12-22T11:15:41;8.80;;;4.70;;
37657;SDS011;23500;53.268;8.308;2023-12-22T11:18:08;9.48;;;4.45;;
37657;SDS011;23500;53.268;8.308;2023-12-22T11:20:35;7.40;;;3.85;;
37657;SDS011;23500;53.268;8.308;2023-12-22T11:23:02;8.45;;;4.43;;
37657;SDS011;23500;53.268;8.308;2023-12-22T11:25:30;8.55;;;4.55;;
37657;SDS011;23500;53.268;8.308;2023-12-22T11:27:57;7.75;;;4.32;;
37657;SDS011;23500;53.268;8.308;2023-12-22T11:30:25;8.68;;;4.90;;
37657;SDS011;23500;53.268;8.308;2023-12-22T11:32:53;7.25;;;4.15;;
37657;SDS011;23500;53.268;8.308;2023-12-22T11:35:20;8.95;;;4.07;;
37657;SDS011;23500;53.268;8.308;2023-12-22T11:37:49;8.77;;;4.18;;
37657;SDS011;23500;53.268;8.308;2023-12-22T11:40:14;6.20;;;4.13;;
37657;SDS011;23500;53.268;8.308;2023-12-22T11:42:42;6.55;;;3.85;;
37657;SDS011;23500;53.268;8.308;2023-12-22T11:45:10;8.65;;;4.10;;
37657;SDS011;23500;53.268;8.308;2023-12-22T11:47:41;9.75;;;4.22;;
37657;SDS011;23500;53.268;8.308;2023-12-22T11:50:11;8.57;;;4.32;;
37657;SDS011;23500;53.268;8.308;2023-12-22T11:52:37;9.23;;;4.72;;
37657;SDS011;23500;53.268;8.308;2023-12-22T11:55:04;10.55;;;4.72;;
37657;SDS011;23500;53.268;8.308;2023-12-22T11:57:32;8.00;;;4.15;;
37657;SDS011;23500;53.268;8.308;2023-12-22T12:00:07;6.97;;;3.75;;
37657;SDS011;23500;53.268;8.308;2023-12-22T12:02:36;7.05;;;4.15;;
37657;SDS011;23500;53.268;8.308;2023-12-22T12:05:05;6.82;;;4.13;;
37657;SDS011;23500;53.268;8.308;2023-12-22T12:10:05;7.40;;;3.97;;
37657;SDS011;23500;53.268;8.308;2023-12-22T12:12:32;6.32;;;3.47;;
37657;SDS011;23500;53.268;8.308;2023-12-22T12:15:01;8.60;;;4.43;;
37657;SDS011;23500;53.268;8.308;2023-12-22T12:17:32;15.60;;;4.50;;
37657;SDS011;23500;53.268;8.308;2023-12-22T12:19:58;6.38;;;3.67;;
37657;SDS011;23500;53.268;8.308;2023-12-22T12:22:25;6.43;;;3.53;;
37657;SDS011;23500;53.268;8.308;2023-12-22T12:24:51;6.97;;;3.75;;
37657;SDS011;23500;53.268;8.308;2023-12-22T12:27:17;8.02;;;4.00;;
37657;SDS011;23500;53.268;8.308;2023-12-22T12:29:46;9.23;;;3.60;;
37657;SDS011;23500;53.268;8.308;2023-12-22T12:32:13;7.07;;;4.00;;
37657;SDS011;23500;53.268;8.308;2023-12-22T12:34:42;7.90;;;3.58;;
37657;SDS011;23500;53.268;8.308;2023-12-22T12:37:08;7.88;;;3.45;;
37657;SDS011;23500;53.268;8.308;2023-12-22T12:39:34;7.05;;;3.38;;
37657;SDS011;23500;53.268;8.308;2023-12-22T12:42:00;6.60;;;3.30;;
37657;SDS011;23500;53.268;8.308;2023-12-22T12:44:27;7.25;;;3.65;;
37657;SDS011;23500;53.268;8.308;2023-12-22T12:46:55;6.50;;;3.70;;
37657;SDS011;23500;53.268;8.308;2023-12-22T12:49:20;5.85;;;3.70;;
37657;SDS011;23500;53.268;8.308;2023-12-22T12:51:47;6.72;;;3.50;;
37657;SDS011;23500;53.268;8.308;2023-12-22T12:54:14;8.68;;;3.72;;
37657;SDS011;23500;53.268;8.308;2023-12-22T12:56:41;5.85;;;3.72;;
37657;SDS011;23500;53.268;8.308;2023-12-22T12:59:10;6.55;;;3.78;;
37657;SDS011;23500;53.268;8.308;2023-12-22T13:01:45;6.47;;;3.33;;
37657;SDS011;23500;53.268;8.308;2023-12-22T13:04:12;6.20;;;3.50;;
37657;SDS011;23500;53.268;8.308;2023-12-22T13:06:48;5.25;;;3.20;;
37657;SDS011;23500;53.268;8.308;2023-12-22T13:09:14;8.10;;;3.67;;
37657;SDS011;23500;53.268;8.308;2023-12-22T13:11:41;9.40;;;3.78;;
37657;SDS011;23500;53.268;8.308;2023-12-22T13:14:08;6.25;;;3.33;;
37657;SDS011;23500;53.268;8.308;2023-12-22T13:16:36;8.75;;;3.05;;
37657;SDS011;23500;53.268;8.308;2023-12-22T13:19:04;8.77;;;3.60;;
37657;SDS011;23500;53.268;8.308;2023-12-22T13:21:30;7.82;;;3.10;;
37657;SDS011;23500;53.268;8.308;2023-12-22T13:24:12;8.95;;;3.28;;
37657;SDS011;23500;53.268;8.308;2023-12-22T13:26:41;8.27;;;3.25;;
37657;SDS011;23500;53.268;8.308;2023-12-22T13:29:08;7.30;;;2.92;;
37657;SDS011;23500;53.268;8.308;2023-12-22T13:31:38;6.43;;;2.85;;
37657;SDS011;23500;53.268;8.308;2023-12-22T13:34:13;6.72;;;2.70;;
37657;SDS011;23500;53.268;8.308;2023-12-22T13:36:40;8.75;;;3.10;;
37657;SDS011;23500;53.268;8.308;2023-12-22T13:39:07;7.82;;;2.90;;
37657;SDS011;23500;53.268;8.308;2023-12-22T13:41:34;9.27;;;2.92;;
37657;SDS011;23500;53.268;8.308;2023-12-22T13:44:04;8.20;;;3.03;;
37657;SDS011;23500;53.268;8.308;2023-12-22T13:46:30;7.07;;;2.70;;
37657;SDS011;23500;53.268;8.308;2023-12-22T13:48:56;6.47;;;2.83;;
37657;SDS011;23500;53.268;8.308;2023-12-22T13:51:23;8.05;;;3.00;;
37657;SDS011;23500;53.268;8.308;2023-12-22T13:53:49;6.10;;;2.25;;
37657;SDS011;23500;53.268;8.308;2023-12-22T13:56:15;4.97;;;2.47;;
37657;SDS011;23500;53.268;8.308;2023-12-22T13:58:44;7.47;;;2.50;;
37657;SDS011;23500;53.268;8.308;2023-12-22T14:01:16;6.35;;;2.20;;
37657;SDS011;23500;53.268;8.308;2023-12-22T14:03:44;5.22;;;2.28;;
37657;SDS011;23500;53.268;8.308;2023-12-22T14:06:13;5.75;;;2.15;;
37657;SDS011;23500;53.268;8.308;2023-12-22T14:08:39;5.05;;;2.10;;
37657;SDS011;23500;53.268;8.308;2023-12-22T14:11:08;8.88;;;2.33;;
37657;SDS011;23500;53.268;8.308;2023-12-22T14:13:34;6.50;;;2.40;;
37657;SDS011;23500;53.268;8.308;2023-12-22T14:16:08;9.18;;;2.35;;
37657;SDS011;23500;53.268;8.308;2023-12-22T14:18:34;6.65;;;2.38;;
37657;SDS011;23500;53.268;8.308;2023-12-22T14:21:00;8.57;;;2.53;;
37657;SDS011;23500;53.268;8.308;2023-12-22T14:23:25;6.15;;;2.33;;
37657;SDS011;23500;53.268;8.308;2023-12-22T14:25:52;5.15;;;2.45;;
37657;SDS011;23500;53.268;8.308;2023-12-22T14:28:17;6.43;;;2.20;;
37657;SDS011;23500;53.268;8.308;2023-12-22T14:30:44;7.53;;;2.33;;
37657;SDS011;23500;53.268;8.308;2023-12-22T14:33:09;8.38;;;2.75;;
37657;SDS011;23500;53.268;8.308;2023-12-22T14:35:35;6.05;;;2.63;;
37657;SDS011;23500;53.268;8.308;2023-12-22T14:38:01;5.18;;;2.15;;
37657;SDS011;23500;53.268;8.308;2023-12-22T14:40:27;6.10;;;1.85;;
37657;SDS011;23500;53.268;8.308;2023-12-22T14:42:53;5.45;;;2.10;;
37657;SDS011;23500;53.268;8.308;2023-12-22T14:45:19;6.65;;;2.50;;